createdAt,value
2017-05-18T00:00:44.427Z,1006.23
2017-05-18T00:01:55.463Z,1006.21
2017-05-18T00:03:06.483Z,1006.22
2017-05-18T00:04:17.565Z,1006.16
2017-05-18T00:05:28.641Z,1006.23
2017-05-18T00:06:39.656Z,1006.21
2017-05-18T00:07:50.903Z,1006.19
2017-05-18T00:09:01.938Z,1006.17
2017-05-18T00:10:12.962Z,1006.14
2017-05-18T00:11:24.032Z,1006.16
2017-05-18T00:12:35.046Z,1006.11
2017-05-18T00:13:46.275Z,1006.17
2017-05-18T00:14:57.327Z,1006.1
2017-05-18T00:16:08.387Z,1006.16
2017-05-18T00:17:19.451Z,1006.1
2017-05-18T00:18:30.458Z,1006.1
2017-05-18T00:19:41.476Z,1006.05
2017-05-18T00:20:52.690Z,1006.07
2017-05-18T00:22:03.727Z,1006.07
2017-05-18T00:23:14.789Z,1006.04
2017-05-18T00:24:25.821Z,1006
2017-05-18T00:25:36.843Z,1005.99
2017-05-18T00:26:47.862Z,1005.99
2017-05-18T00:27:58.876Z,1005.97
2017-05-18T00:29:09.944Z,1006
2017-05-18T00:30:20.962Z,1005.96
2017-05-18T00:31:31.978Z,1005.91
2017-05-18T00:32:42.998Z,1005.97
2017-05-18T00:33:54.013Z,1005.97
2017-05-18T00:35:05.073Z,1005.9
2017-05-18T00:36:16.077Z,1005.94
2017-05-18T00:37:27.097Z,1005.92
2017-05-18T00:38:38.321Z,1005.89
2017-05-18T00:39:49.550Z,1005.87
2017-05-18T00:41:00.613Z,1005.9
2017-05-18T00:42:11.636Z,1005.82
2017-05-18T00:43:22.662Z,1005.83
2017-05-18T00:44:33.692Z,1005.83
2017-05-18T00:45:44.762Z,1005.87
2017-05-18T00:46:55.839Z,1005.84
2017-05-18T00:48:06.848Z,1005.79
2017-05-18T00:49:18.058Z,1005.81
2017-05-18T00:50:29.292Z,1005.78
2017-05-18T00:51:40.319Z,1005.78
2017-05-18T00:52:51.384Z,1005.77
2017-05-18T00:54:02.412Z,1005.79
2017-05-18T00:55:13.440Z,1005.78
2017-05-18T00:56:24.459Z,1005.78
2017-05-18T00:57:35.475Z,1005.77
2017-05-18T00:58:46.551Z,1005.77
2017-05-18T00:59:57.774Z,1005.76
2017-05-18T01:01:08.794Z,1005.74
2017-05-18T01:02:19.804Z,1005.76
2017-05-18T01:03:30.827Z,1005.75
2017-05-18T01:04:41.899Z,1005.73
2017-05-18T01:05:52.977Z,1005.73
2017-05-18T01:07:04.013Z,1005.74
2017-05-18T01:08:15.022Z,1005.71
2017-05-18T01:09:26.046Z,1005.69
2017-05-18T01:10:37.063Z,1005.65
2017-05-18T01:11:48.269Z,1005.66
2017-05-18T01:12:59.288Z,1005.69
2017-05-18T01:14:10.310Z,1005.66
2017-05-18T01:15:21.371Z,1005.65
2017-05-18T01:16:32.383Z,1005.66
2017-05-18T01:17:43.404Z,1005.66
2017-05-18T01:18:54.635Z,1005.63
2017-05-18T01:20:05.657Z,1005.6
2017-05-18T01:21:16.739Z,1005.62
2017-05-18T01:22:27.975Z,1005.6
2017-05-18T01:23:39.062Z,1005.61
2017-05-18T01:24:50.289Z,1005.62
2017-05-18T01:26:01.513Z,1005.58
2017-05-18T01:27:12.590Z,1005.56
2017-05-18T01:28:23.614Z,1005.55
2017-05-18T01:29:34.640Z,1005.56
2017-05-18T01:30:45.853Z,1005.57
2017-05-18T01:31:57.070Z,1005.55
2017-05-18T01:33:08.329Z,1005.56
2017-05-18T01:34:19.347Z,1005.51
2017-05-18T01:35:30.376Z,1005.52
2017-05-18T01:36:41.395Z,1005.51
2017-05-18T01:37:52.828Z,1005.49
2017-05-18T01:39:04.102Z,1005.47
2017-05-18T01:40:15.122Z,1005.48
2017-05-18T01:41:26.136Z,1005.49
2017-05-18T01:42:37.344Z,1005.48
2017-05-18T01:43:48.362Z,1005.45
2017-05-18T01:44:59.424Z,1005.46
2017-05-18T01:46:10.450Z,1005.45
2017-05-18T01:47:21.463Z,1005.43
2017-05-18T01:48:32.479Z,1005.41
2017-05-18T01:49:43.496Z,1005.37
2017-05-18T01:50:54.567Z,1005.39
2017-05-18T01:52:05.592Z,1005.39
2017-05-18T01:53:16.616Z,1005.39
2017-05-18T01:54:27.629Z,1005.39
2017-05-18T01:55:38.709Z,1005.39
2017-05-18T01:56:49.984Z,1005.37
2017-05-18T01:58:01.011Z,1005.35
2017-05-18T01:59:12.035Z,1005.36
2017-05-18T02:00:23.057Z,1005.36
2017-05-18T02:01:34.115Z,1005.33
2017-05-18T02:02:45.536Z,1005.34
2017-05-18T02:03:56.773Z,1005.31
2017-05-18T02:05:07.803Z,1005.29
2017-05-18T02:06:18.836Z,1005.31
2017-05-18T02:07:30.114Z,1005.31
2017-05-18T02:08:41.138Z,1005.35
2017-05-18T02:09:52.162Z,1005.33
2017-05-18T02:11:03.401Z,1005.32
2017-05-18T02:12:14.423Z,1005.35
2017-05-18T02:13:25.478Z,1005.38
2017-05-18T02:14:36.720Z,1005.34
2017-05-18T02:15:47.736Z,1005.32
2017-05-18T02:16:58.947Z,1005.37
2017-05-18T02:18:09.963Z,1005.32
2017-05-18T02:19:21.035Z,1005.34
2017-05-18T02:20:32.046Z,1005.3
2017-05-18T02:21:43.071Z,1005.3
2017-05-18T02:22:54.087Z,1005.33
2017-05-18T02:24:05.317Z,1005.3
2017-05-18T02:25:16.371Z,1005.29
2017-05-18T02:26:27.598Z,1005.3
2017-05-18T02:27:38.627Z,1005.28
2017-05-18T02:28:49.653Z,1005.24
2017-05-18T02:30:00.879Z,1005.25
2017-05-18T02:31:11.946Z,1005.28
2017-05-18T02:32:22.970Z,1005.19
2017-05-18T02:33:33.993Z,1005.21
2017-05-18T02:34:45.195Z,1005.22
2017-05-18T02:35:56.215Z,1005.22
2017-05-18T02:37:07.282Z,1005.26
2017-05-18T02:38:18.494Z,1005.27
2017-05-18T02:39:29.528Z,1005.27
2017-05-18T02:40:40.598Z,1005.3
2017-05-18T02:41:51.613Z,1005.31
2017-05-18T02:43:02.670Z,1005.31
2017-05-18T02:44:13.891Z,1005.33
2017-05-18T02:45:24.903Z,1005.32
2017-05-18T02:46:36.125Z,1005.33
2017-05-18T02:47:47.332Z,1005.38
2017-05-18T02:48:58.603Z,1005.34
2017-05-18T02:50:09.868Z,1005.37
2017-05-18T02:51:20.877Z,1005.34
2017-05-18T02:52:32.080Z,1005.36
2017-05-18T02:53:43.102Z,1005.37
2017-05-18T02:54:54.169Z,1005.38
2017-05-18T02:56:05.249Z,1005.36
2017-05-18T02:57:16.273Z,1005.35
2017-05-18T02:58:27.329Z,1005.39
2017-05-18T02:59:38.550Z,1005.39
2017-05-18T03:00:49.570Z,1005.41
2017-05-18T03:02:00.776Z,1005.37
2017-05-18T03:03:11.794Z,1005.38
2017-05-18T03:04:22.820Z,1005.4
2017-05-18T03:05:33.884Z,1005.39
2017-05-18T03:06:44.944Z,1005.4
2017-05-18T03:07:56.166Z,1005.37
2017-05-18T03:09:07.183Z,1005.38
2017-05-18T03:10:18.215Z,1005.38
2017-05-18T03:11:29.278Z,1005.38
2017-05-18T03:12:40.297Z,1005.38
2017-05-18T03:13:51.320Z,1005.37
2017-05-18T03:15:02.349Z,1005.4
2017-05-18T03:16:13.557Z,1005.37
2017-05-18T03:17:24.617Z,1005.42
2017-05-18T03:18:35.639Z,1005.41
2017-05-18T03:19:46.656Z,1005.37
2017-05-18T03:20:57.676Z,1005.42
2017-05-18T03:22:08.683Z,1005.38
2017-05-18T03:23:19.746Z,1005.43
2017-05-18T03:24:30.777Z,1005.43
2017-05-18T03:25:41.798Z,1005.41
2017-05-18T03:26:52.831Z,1005.44
2017-05-18T03:28:03.848Z,1005.41
2017-05-18T03:29:15.374Z,1005.44
2017-05-18T03:30:26.401Z,1005.43
2017-05-18T03:31:37.416Z,1005.44
2017-05-18T03:32:48.622Z,1005.42
2017-05-18T03:33:59.646Z,1005.43
2017-05-18T03:35:10.703Z,1005.44
2017-05-18T03:36:21.723Z,1005.46
2017-05-18T03:37:32.736Z,1005.45
2017-05-18T03:38:43.757Z,1005.51
2017-05-18T03:39:54.776Z,1005.51
2017-05-18T03:41:06.048Z,1005.52
2017-05-18T03:42:17.065Z,1005.5
2017-05-18T03:43:28.077Z,1005.53
2017-05-18T03:44:39.091Z,1005.52
2017-05-18T03:45:50.306Z,1005.54
2017-05-18T03:47:01.386Z,1005.52
2017-05-18T03:48:12.404Z,1005.52
2017-05-18T03:49:23.436Z,1005.52
2017-05-18T03:50:34.460Z,1005.54
2017-05-18T03:51:45.479Z,1005.54
2017-05-18T03:52:56.556Z,1005.53
2017-05-18T03:54:07.637Z,1005.52
2017-05-18T03:55:18.702Z,1005.53
2017-05-18T03:56:29.727Z,1005.53
2017-05-18T03:57:41.149Z,1005.56
2017-05-18T03:58:52.225Z,1005.57
2017-05-18T04:00:03.250Z,1005.56
2017-05-18T04:01:14.266Z,1005.59
2017-05-18T04:02:25.280Z,1005.61
2017-05-18T04:03:36.294Z,1005.57
2017-05-18T04:04:47.576Z,1005.57
2017-05-18T04:05:58.590Z,1005.58
2017-05-18T04:07:10.017Z,1005.62
2017-05-18T04:08:21.241Z,1005.61
2017-05-18T04:09:32.260Z,1005.58
2017-05-18T04:10:43.277Z,1005.57
2017-05-18T04:11:54.301Z,1005.6
2017-05-18T04:13:05.511Z,1005.6
2017-05-18T04:14:16.573Z,1005.58
2017-05-18T04:15:27.659Z,1005.59
2017-05-18T04:16:38.884Z,1005.65
2017-05-18T04:17:49.904Z,1005.6
2017-05-18T04:19:00.914Z,1005.68
2017-05-18T04:20:11.919Z,1005.63
2017-05-18T04:21:23.184Z,1005.68
2017-05-18T04:22:34.205Z,1005.63
2017-05-18T04:23:45.216Z,1005.69
2017-05-18T04:24:56.242Z,1005.67
2017-05-18T04:26:07.253Z,1005.74
2017-05-18T04:27:18.528Z,1005.68
2017-05-18T04:28:29.554Z,1005.71
2017-05-18T04:29:40.582Z,1005.73
2017-05-18T04:30:51.804Z,1005.73
2017-05-18T04:32:03.038Z,1005.77
2017-05-18T04:33:14.094Z,1005.74
2017-05-18T04:34:25.106Z,1005.73
2017-05-18T04:35:36.126Z,1005.79
2017-05-18T04:36:47.352Z,1005.8
2017-05-18T04:37:58.435Z,1005.77
2017-05-18T04:39:09.502Z,1005.74
2017-05-18T04:40:20.729Z,1005.79
2017-05-18T04:41:32.147Z,1005.83
2017-05-18T04:42:43.165Z,1005.84
2017-05-18T04:43:54.397Z,1005.86
2017-05-18T04:45:05.477Z,1005.88
2017-05-18T04:46:16.498Z,1005.87
2017-05-18T04:47:27.526Z,1005.85
2017-05-18T04:48:38.749Z,1005.9
2017-05-18T04:49:49.773Z,1005.89
2017-05-18T04:51:00.862Z,1005.93
2017-05-18T04:52:11.909Z,1005.92
2017-05-18T04:53:22.930Z,1005.91
2017-05-18T04:54:33.964Z,1005.88
2017-05-18T04:55:44.989Z,1005.91
2017-05-18T04:56:56.056Z,1005.91
2017-05-18T04:58:07.269Z,1005.92
2017-05-18T04:59:18.285Z,1005.95
2017-05-18T05:00:29.310Z,1005.99
2017-05-18T05:01:40.352Z,1006
2017-05-18T05:02:51.423Z,1006.02
2017-05-18T05:04:02.450Z,1006
2017-05-18T05:05:13.470Z,1006.01
2017-05-18T05:06:24.732Z,1006.08
2017-05-18T05:07:35.812Z,1006.11
2017-05-18T05:08:46.886Z,1006.12
2017-05-18T05:09:57.913Z,1006.1
2017-05-18T05:11:09.165Z,1006.18
2017-05-18T05:12:20.184Z,1006.22
2017-05-18T05:13:31.611Z,1006.21
2017-05-18T05:14:42.698Z,1006.17
2017-05-18T05:15:53.720Z,1006.21
2017-05-18T05:17:04.747Z,1006.19
2017-05-18T05:18:15.774Z,1006.23
2017-05-18T05:19:26.798Z,1006.19
2017-05-18T05:20:37.823Z,1006.19
2017-05-18T05:21:48.840Z,1006.15
2017-05-18T05:22:59.868Z,1006.16
2017-05-18T05:24:10.904Z,1006.13
2017-05-18T05:25:22.026Z,1006.21
2017-05-18T05:26:33.042Z,1006.2
2017-05-18T05:27:44.071Z,1006.25
2017-05-18T05:28:55.308Z,1006.24
2017-05-18T05:30:06.341Z,1006.23
2017-05-18T05:31:17.416Z,1006.26
2017-05-18T05:32:28.437Z,1006.24
2017-05-18T05:33:39.458Z,1006.26
2017-05-18T05:34:50.481Z,1006.22
2017-05-18T05:36:01.508Z,1006.32
2017-05-18T05:37:12.848Z,1006.31
2017-05-18T05:38:24.076Z,1006.3
2017-05-18T05:39:35.103Z,1006.32
2017-05-18T05:40:46.128Z,1006.31
2017-05-18T05:41:57.156Z,1006.34
2017-05-18T05:43:08.232Z,1006.33
2017-05-18T05:44:19.247Z,1006.37
2017-05-18T05:45:30.490Z,1006.42
2017-05-18T05:46:41.520Z,1006.41
2017-05-18T05:47:52.545Z,1006.39
2017-05-18T05:49:03.624Z,1006.44
2017-05-18T05:50:14.646Z,1006.46
2017-05-18T05:51:25.861Z,1006.48
2017-05-18T05:52:37.081Z,1006.5
2017-05-18T05:53:48.107Z,1006.52
2017-05-18T05:54:59.181Z,1006.51
2017-05-18T05:56:10.199Z,1006.48
2017-05-18T05:57:21.224Z,1006.56
2017-05-18T05:58:32.240Z,1006.55
2017-05-18T05:59:43.267Z,1006.54
2017-05-18T06:00:54.497Z,1006.55
2017-05-18T06:02:05.517Z,1006.55
2017-05-18T06:03:16.537Z,1006.57
2017-05-18T06:04:27.610Z,1006.57
2017-05-18T06:05:38.983Z,1006.61
2017-05-18T06:06:50.000Z,1006.66
2017-05-18T06:08:01.029Z,1006.67
2017-05-18T06:09:12.061Z,1006.71
2017-05-18T06:10:23.103Z,1006.72
2017-05-18T06:11:34.388Z,1006.72
2017-05-18T06:12:45.409Z,1006.78
2017-05-18T06:13:56.430Z,1006.8
2017-05-18T06:15:07.459Z,1006.79
2017-05-18T06:16:18.473Z,1006.83
2017-05-18T06:17:29.545Z,1006.83
2017-05-18T06:18:40.591Z,1006.82
2017-05-18T06:19:51.623Z,1006.9
2017-05-18T06:21:02.645Z,1006.9
2017-05-18T06:22:13.673Z,1006.89
2017-05-18T06:23:24.736Z,1006.88
2017-05-18T06:24:35.763Z,1006.87
2017-05-18T06:25:46.788Z,1006.9
2017-05-18T06:26:57.810Z,1006.93
2017-05-18T06:28:08.858Z,1006.95
2017-05-18T06:29:19.933Z,1007
2017-05-18T06:30:30.966Z,1007.09
2017-05-18T06:31:41.983Z,1007.2
2017-05-18T06:32:53.012Z,1007.22
2017-05-18T06:34:04.241Z,1007.13
2017-05-18T06:35:15.323Z,1007.04
2017-05-18T06:36:26.355Z,1007.02
2017-05-18T06:37:37.582Z,1007.05
2017-05-18T06:38:48.808Z,1006.99
2017-05-18T06:39:59.875Z,1006.96
2017-05-18T06:41:10.954Z,1007.02
2017-05-18T06:42:21.976Z,1007.02
2017-05-18T06:43:33.000Z,1007.09
2017-05-18T06:44:44.037Z,1007.04
2017-05-18T06:45:55.265Z,1006.94
2017-05-18T06:47:06.448Z,1007
2017-05-18T06:48:17.474Z,1006.95
2017-05-18T06:49:28.495Z,1006.98
2017-05-18T06:50:39.517Z,1006.98
2017-05-18T06:51:50.742Z,1007.11
2017-05-18T06:53:01.821Z,1007.12
2017-05-18T06:54:12.848Z,1007.19
2017-05-18T06:55:23.873Z,1007.11
2017-05-18T06:56:34.899Z,1007.19
2017-05-18T06:57:45.929Z,1007.28
2017-05-18T06:58:57.098Z,1007.28
2017-05-18T07:00:08.112Z,1007.24
2017-05-18T07:01:19.148Z,1007.27
2017-05-18T07:02:30.390Z,1007.42
2017-05-18T07:03:41.426Z,1007.33
2017-05-18T07:04:52.605Z,1007.57
2017-05-18T07:06:03.642Z,1007.48
2017-05-18T07:07:14.667Z,1007.49
2017-05-18T07:08:25.690Z,1007.34
2017-05-18T07:09:36.717Z,1007.31
2017-05-18T07:10:47.747Z,1007.32
2017-05-18T07:11:58.759Z,1007.29
2017-05-18T07:13:09.984Z,1007.36
2017-05-18T07:14:21.022Z,1007.41
2017-05-18T07:15:32.106Z,1007.51
2017-05-18T07:16:43.135Z,1007.47
2017-05-18T07:17:54.171Z,1007.62
2017-05-18T07:19:05.204Z,1007.86
2017-05-18T07:20:16.218Z,1007.82
2017-05-18T07:21:27.289Z,1008.09
2017-05-18T07:22:38.314Z,1007.99
2017-05-18T07:23:49.341Z,1008.04
2017-05-18T07:25:00.572Z,1007.77
2017-05-18T07:26:11.787Z,1007.62
2017-05-18T07:27:23.056Z,1007.55
2017-05-18T07:28:34.098Z,1007.6
2017-05-18T07:29:45.132Z,1007.52
2017-05-18T07:30:56.167Z,1007.55
2017-05-18T07:32:07.396Z,1007.61
2017-05-18T07:33:18.663Z,1007.55
2017-05-18T07:34:29.893Z,1007.54
2017-05-18T07:35:41.109Z,1007.58
2017-05-18T07:36:52.134Z,1007.6
2017-05-18T07:38:03.181Z,1007.54
2017-05-18T07:39:14.247Z,1007.53
2017-05-18T07:40:25.275Z,1007.55
2017-05-18T07:41:36.298Z,1007.54
2017-05-18T07:42:47.316Z,1007.62
2017-05-18T07:43:58.341Z,1007.6
2017-05-18T07:45:09.415Z,1007.6
2017-05-18T07:46:20.649Z,1007.53
2017-05-18T07:47:31.675Z,1007.54
2017-05-18T07:48:42.908Z,1007.53
2017-05-18T07:49:53.919Z,1007.61
2017-05-18T07:51:05.000Z,1007.63
2017-05-18T07:52:16.012Z,1007.65
2017-05-18T07:53:27.039Z,1007.64
2017-05-18T07:54:38.061Z,1007.62
2017-05-18T07:55:49.086Z,1007.63
2017-05-18T07:57:00.153Z,1007.65
2017-05-18T07:58:11.370Z,1007.72
2017-05-18T07:59:22.584Z,1007.83
2017-05-18T08:00:33.600Z,1007.96
2017-05-18T08:01:44.626Z,1008.01
2017-05-18T08:02:55.898Z,1008.6
2017-05-18T08:04:06.917Z,1008.08
2017-05-18T08:05:18.137Z,1007.99
2017-05-18T08:06:29.154Z,1007.95
2017-05-18T08:07:40.186Z,1007.98
2017-05-18T08:08:51.265Z,1008.02
2017-05-18T08:10:02.339Z,1008.03
2017-05-18T08:11:13.405Z,1008.06
2017-05-18T08:12:24.470Z,1008.06
2017-05-18T08:13:35.498Z,1008.09
2017-05-18T08:14:46.579Z,1008.12
2017-05-18T08:15:57.606Z,1008.13
2017-05-18T08:17:08.629Z,1008.1
2017-05-18T08:18:19.904Z,1008.17
2017-05-18T08:19:30.938Z,1008.14
2017-05-18T08:20:42.165Z,1008.09
2017-05-18T08:21:53.382Z,1008.07
2017-05-18T08:23:04.391Z,1008.01
2017-05-18T08:24:15.428Z,1008.03
2017-05-18T08:25:26.696Z,1008.03
2017-05-18T08:26:37.717Z,1008.04
2017-05-18T08:27:48.737Z,1008.02
2017-05-18T08:28:59.751Z,1008.04
2017-05-18T08:30:10.987Z,1008.02
2017-05-18T08:31:22.058Z,1008
2017-05-18T08:32:33.273Z,1008.09
2017-05-18T08:33:44.307Z,1008.22
2017-05-18T08:34:55.727Z,1008.16
2017-05-18T08:36:06.750Z,1008.22
2017-05-18T08:37:17.850Z,1008.33
2017-05-18T08:38:28.879Z,1008.13
2017-05-18T08:39:40.095Z,1008.16
2017-05-18T08:40:51.111Z,1008.15
2017-05-18T08:42:02.140Z,1008.18
2017-05-18T08:43:13.201Z,1008.3
2017-05-18T08:44:24.423Z,1008.32
2017-05-18T08:45:35.448Z,1008.29
2017-05-18T08:46:46.671Z,1008.4
2017-05-18T08:47:57.701Z,1008.3
2017-05-18T08:49:08.788Z,1008.41
2017-05-18T08:50:19.811Z,1008.64
2017-05-18T08:51:30.823Z,1008.57
2017-05-18T08:52:42.036Z,1009.06
2017-05-18T08:53:53.266Z,1008.5
2017-05-18T08:55:04.554Z,1008.47
2017-05-18T08:56:15.570Z,1008.88
2017-05-18T08:57:26.709Z,1009.11
2017-05-18T08:58:37.744Z,1008.46
2017-05-18T08:59:48.764Z,1008.25
2017-05-18T09:01:00.036Z,1008.15
2017-05-18T09:02:11.107Z,1008.08
2017-05-18T09:03:22.129Z,1008.08
2017-05-18T09:04:33.151Z,1008.1
2017-05-18T09:05:44.185Z,1008.12
2017-05-18T09:06:55.266Z,1008.18
2017-05-18T09:08:06.288Z,1008.21
2017-05-18T09:09:17.513Z,1008.13
2017-05-18T09:10:28.549Z,1008.24
2017-05-18T09:11:39.769Z,1008.49
2017-05-18T09:12:50.844Z,1008.57
2017-05-18T09:14:01.863Z,1009.76
2017-05-18T09:15:12.895Z,1009.67
2017-05-18T09:16:23.931Z,1009.06
2017-05-18T09:17:35.145Z,1008.32
2017-05-18T09:18:46.234Z,1008.08
2017-05-18T09:19:57.263Z,1008.32
2017-05-18T09:21:08.291Z,1008.55
2017-05-18T09:22:19.314Z,1008.76
2017-05-18T09:23:30.375Z,1008.93
2017-05-18T09:24:41.645Z,1008.65
2017-05-18T09:25:52.703Z,1008.38
2017-05-18T09:27:03.924Z,1008.37
2017-05-18T09:28:14.947Z,1008.49
2017-05-18T09:29:25.975Z,1008.42
2017-05-18T09:30:37.000Z,1008.55
2017-05-18T09:31:48.430Z,1008.56
2017-05-18T09:32:59.468Z,1008.63
2017-05-18T09:34:10.489Z,1008.53
2017-05-18T09:35:21.773Z,1008.29
2017-05-18T09:36:32.787Z,1008.54
2017-05-18T09:37:43.814Z,1008.69
2017-05-18T09:38:54.856Z,1008.77
2017-05-18T09:40:05.927Z,1008.41
2017-05-18T09:41:17.011Z,1008.61
2017-05-18T09:42:28.246Z,1008.51
2017-05-18T09:43:39.354Z,1008.48
2017-05-18T09:44:50.372Z,1008.63
2017-05-18T09:46:01.398Z,1008.59
2017-05-18T09:47:12.484Z,1008.56
2017-05-18T09:48:23.520Z,1008.54
2017-05-18T09:49:34.761Z,1008.49
2017-05-18T09:50:45.793Z,1008.8
2017-05-18T09:51:56.843Z,1008.57
2017-05-18T09:53:07.922Z,1008.58
2017-05-18T09:54:18.943Z,1008.79
2017-05-18T09:55:30.171Z,1010.15
2017-05-18T09:56:41.188Z,1010.76
2017-05-18T09:57:52.211Z,1010.65
2017-05-18T09:59:03.482Z,1008.9
2017-05-18T10:00:14.520Z,1008.58
2017-05-18T10:01:25.550Z,1008.47
2017-05-18T10:02:36.782Z,1009.08
2017-05-18T10:03:47.876Z,1008.39
2017-05-18T10:04:58.972Z,1008.25
2017-05-18T10:06:10.010Z,1008.25
2017-05-18T10:07:21.054Z,1008.59
2017-05-18T10:08:32.094Z,1008.8
2017-05-18T10:09:43.133Z,1008.54
2017-05-18T10:10:54.165Z,1008.34
2017-05-18T10:12:05.395Z,1008.31
2017-05-18T10:13:16.412Z,1008.38
2017-05-18T10:14:27.447Z,1008.42
2017-05-18T10:15:38.521Z,1008.37
2017-05-18T10:16:49.543Z,1008.42
2017-05-18T10:18:00.768Z,1009.18
2017-05-18T10:19:11.795Z,1009.38
2017-05-18T10:20:23.045Z,1008.95
2017-05-18T10:21:34.111Z,1008.44
2017-05-18T10:22:45.125Z,1008.38
2017-05-18T10:23:56.165Z,1008.38
2017-05-18T10:25:07.387Z,1008.39
2017-05-18T10:26:18.659Z,1008.39
2017-05-18T10:27:29.731Z,1008.43
2017-05-18T10:28:40.820Z,1008.42
2017-05-18T10:29:51.857Z,1008.39
2017-05-18T10:31:02.912Z,1008.52
2017-05-18T10:32:14.141Z,1008.57
2017-05-18T10:33:25.220Z,1008.58
2017-05-18T10:34:36.251Z,1008.49
2017-05-18T10:35:47.272Z,1008.63
2017-05-18T10:36:58.303Z,1008.56
2017-05-18T10:38:09.335Z,1008.75
2017-05-18T10:39:20.406Z,1008.74
2017-05-18T10:40:31.433Z,1008.74
2017-05-18T10:41:42.457Z,1008.89
2017-05-18T10:42:53.679Z,1008.84
2017-05-18T10:44:04.704Z,1008.71
2017-05-18T10:45:15.781Z,1008.67
2017-05-18T10:46:26.799Z,1008.77
2017-05-18T10:47:37.832Z,1008.84
2017-05-18T10:48:48.868Z,1008.67
2017-05-18T10:49:59.894Z,1008.69
2017-05-18T10:51:10.987Z,1008.66
2017-05-18T10:52:22.010Z,1008.59
2017-05-18T10:53:33.097Z,1008.7
2017-05-18T10:54:44.136Z,1008.76
2017-05-18T10:55:55.168Z,1008.67
2017-05-18T10:57:06.448Z,1008.49
2017-05-18T10:58:17.672Z,1008.63
2017-05-18T10:59:28.704Z,1008.52
2017-05-18T11:00:39.722Z,1008.49
2017-05-18T11:01:50.749Z,1008.45
2017-05-18T11:03:01.819Z,1008.38
2017-05-18T11:04:12.916Z,1008.39
2017-05-18T11:05:23.949Z,1008.48
2017-05-18T11:06:35.166Z,1008.45
2017-05-18T11:07:46.201Z,1008.47
2017-05-18T11:08:57.283Z,1008.46
2017-05-18T11:10:08.326Z,1008.41
2017-05-18T11:11:19.359Z,1008.42
2017-05-18T11:12:30.379Z,1008.34
2017-05-18T11:13:41.421Z,1008.26
2017-05-18T11:14:52.511Z,1008.36
2017-05-18T11:16:03.550Z,1008.31
2017-05-18T11:17:14.781Z,1008.37
2017-05-18T11:18:25.814Z,1008.34
2017-05-18T11:19:36.842Z,1008.36
2017-05-18T11:20:48.067Z,1008.36
2017-05-18T11:21:59.088Z,1008.36
2017-05-18T11:23:10.110Z,1008.35
2017-05-18T11:24:21.337Z,1008.38
2017-05-18T11:25:32.414Z,1008.37
2017-05-18T11:26:43.436Z,1008.36
2017-05-18T11:27:54.488Z,1008.4
2017-05-18T11:29:05.521Z,1008.32
2017-05-18T11:30:16.745Z,1008.34
2017-05-18T11:31:28.026Z,1008.36
2017-05-18T11:32:39.052Z,1008.37
2017-05-18T11:33:50.287Z,1008.39
2017-05-18T11:35:01.498Z,1008.39
2017-05-18T11:36:12.543Z,1008.39
2017-05-18T11:37:23.617Z,1008.38
2017-05-18T11:38:34.899Z,1008.36
2017-05-18T11:39:45.924Z,1008.37
2017-05-18T11:40:56.959Z,1008.42
2017-05-18T11:42:07.974Z,1008.41
2017-05-18T11:43:19.048Z,1008.39
2017-05-18T11:44:30.275Z,1008.41
2017-05-18T11:45:41.288Z,1008.4
2017-05-18T11:46:52.307Z,1008.43
2017-05-18T11:48:03.339Z,1008.44
2017-05-18T11:49:14.483Z,1008.49
2017-05-18T11:50:25.602Z,1008.45
2017-05-18T11:51:36.836Z,1008.45
2017-05-18T11:52:47.863Z,1008.42
2017-05-18T11:53:58.886Z,1008.43
2017-05-18T11:55:09.971Z,1008.42
2017-05-18T11:56:21.001Z,1008.38
2017-05-18T11:57:32.024Z,1008.35
2017-05-18T11:58:43.051Z,1008.33
2017-05-18T11:59:54.074Z,1008.27
2017-05-18T12:01:05.142Z,1008.21
2017-05-18T12:02:16.152Z,1008.2
2017-05-18T12:03:27.370Z,1008.2
2017-05-18T12:04:38.401Z,1008.15
2017-05-18T12:05:49.623Z,1008.15
2017-05-18T12:07:00.706Z,1008.21
2017-05-18T12:08:11.948Z,1008.23
2017-05-18T12:09:22.981Z,1008.29
2017-05-18T12:10:34.001Z,1008.31
2017-05-18T12:11:45.024Z,1008.28
2017-05-18T12:12:56.085Z,1008.32
2017-05-18T12:14:07.116Z,1008.3
2017-05-18T12:15:18.134Z,1008.32
2017-05-18T12:16:29.146Z,1008.3
2017-05-18T12:17:40.160Z,1008.28
2017-05-18T12:18:51.252Z,1008.33
2017-05-18T12:20:02.273Z,1008.36
2017-05-18T12:21:13.339Z,1008.41
2017-05-18T12:22:24.358Z,1008.4
2017-05-18T12:23:35.390Z,1008.41
2017-05-18T12:24:46.409Z,1008.4
2017-05-18T12:25:57.421Z,1008.4
2017-05-18T12:27:08.443Z,1008.33
2017-05-18T12:28:19.457Z,1008.35
2017-05-18T12:29:30.530Z,1008.34
2017-05-18T12:30:41.555Z,1008.33
2017-05-18T12:31:52.775Z,1008.3
2017-05-18T12:33:03.796Z,1008.24
2017-05-18T12:34:14.865Z,1008.19
2017-05-18T12:35:25.938Z,1008.21
2017-05-18T12:36:36.954Z,1008.23
2017-05-18T12:37:47.966Z,1008.31
2017-05-18T12:38:58.990Z,1008.34
2017-05-18T12:40:10.029Z,1008.36
2017-05-18T12:41:21.100Z,1008.29
2017-05-18T12:42:32.303Z,1008.31
2017-05-18T12:43:43.311Z,1008.32
2017-05-18T12:44:54.530Z,1008.35
2017-05-18T12:46:05.536Z,1008.39
2017-05-18T12:47:16.610Z,1008.38
2017-05-18T12:48:27.630Z,1008.34
2017-05-18T12:49:38.644Z,1008.32
2017-05-18T12:50:49.673Z,1008.34
2017-05-18T12:52:00.707Z,1008.33
2017-05-18T12:53:11.778Z,1008.34
2017-05-18T12:54:22.800Z,1008.35
2017-05-18T12:55:34.085Z,1008.36
2017-05-18T12:56:45.101Z,1008.33
2017-05-18T12:57:56.110Z,1008.31
2017-05-18T12:59:07.398Z,1008.31
2017-05-18T13:00:18.620Z,1008.25
2017-05-18T13:01:29.641Z,1008.24
2017-05-18T13:02:40.866Z,1008.18
2017-05-18T13:03:51.892Z,1008.1
2017-05-18T13:05:02.966Z,1008.07
2017-05-18T13:06:14.184Z,1008.03
2017-05-18T13:07:25.403Z,1008.04
2017-05-18T13:08:36.435Z,1008.06
2017-05-18T13:09:47.471Z,1008.08
2017-05-18T13:10:58.498Z,1008.13
2017-05-18T13:12:09.715Z,1008.21
2017-05-18T13:13:20.729Z,1008.15
2017-05-18T13:14:31.741Z,1008.18
2017-05-18T13:15:42.812Z,1008.19
2017-05-18T13:16:53.833Z,1008.16
2017-05-18T13:18:05.119Z,1008.14
2017-05-18T13:19:16.132Z,1008.13
2017-05-18T13:20:27.141Z,1008.17
2017-05-18T13:21:38.213Z,1008.11
2017-05-18T13:22:49.433Z,1008.14
2017-05-18T13:24:00.461Z,1008.16
2017-05-18T13:25:11.690Z,1008.17
2017-05-18T13:26:22.708Z,1008.19
2017-05-18T13:27:33.722Z,1008.17
2017-05-18T13:28:44.937Z,1008.16
2017-05-18T13:29:55.955Z,1008.16
2017-05-18T13:31:06.973Z,1008.18
2017-05-18T13:32:17.989Z,1008.16
2017-05-18T13:33:29.053Z,1008.09
2017-05-18T13:34:40.070Z,1007.97
2017-05-18T13:35:51.100Z,1007.93
2017-05-18T13:37:02.128Z,1007.95
2017-05-18T13:38:13.194Z,1007.93
2017-05-18T13:39:24.474Z,1007.89
2017-05-18T13:40:35.494Z,1007.95
2017-05-18T13:41:46.514Z,1007.97
2017-05-18T13:42:57.732Z,1007.99
2017-05-18T13:44:08.803Z,1008.01
2017-05-18T13:45:19.819Z,1008.07
2017-05-18T13:46:30.827Z,1008.12
2017-05-18T13:47:41.846Z,1008.15
2017-05-18T13:48:52.864Z,1008.18
2017-05-18T13:50:04.085Z,1008.2
2017-05-18T13:51:15.101Z,1008.21
2017-05-18T13:52:26.314Z,1008.2
2017-05-18T13:53:37.334Z,1008.25
2017-05-18T13:54:48.356Z,1008.25
2017-05-18T13:55:59.429Z,1008.2
2017-05-18T13:57:10.645Z,1008.25
2017-05-18T13:58:21.871Z,1008.26
2017-05-18T13:59:32.884Z,1008.26
2017-05-18T14:00:43.904Z,1008.26
2017-05-18T14:01:54.972Z,1008.16
2017-05-18T14:03:06.202Z,1008.13
2017-05-18T14:04:17.208Z,1008.08
2017-05-18T14:05:28.218Z,1008.08
2017-05-18T14:06:39.225Z,1008.07
2017-05-18T14:07:50.297Z,1008.07
2017-05-18T14:09:01.324Z,1008.09
2017-05-18T14:10:12.350Z,1008.07
2017-05-18T14:11:23.560Z,1008.08
2017-05-18T14:12:34.596Z,1008.05
2017-05-18T14:13:45.668Z,1008.05
2017-05-18T14:14:56.688Z,1008.03
2017-05-18T14:16:07.715Z,1008.02
2017-05-18T14:17:18.934Z,1008.01
2017-05-18T14:18:29.952Z,1008.02
2017-05-18T14:19:41.032Z,1008.02
2017-05-18T14:20:52.051Z,1008.03
2017-05-18T14:22:03.079Z,1008.05
2017-05-18T14:23:14.102Z,1008.07